createdAt,value
2018-05-12T00:02:17.581Z,13.87
2018-05-12T00:05:20.081Z,13.00
2018-05-12T00:08:22.564Z,12.70
2018-05-12T00:11:24.998Z,13.00
2018-05-12T00:14:27.491Z,13.27
2018-05-12T00:17:29.988Z,12.73
2018-05-12T00:20:32.549Z,12.93
2018-05-12T00:23:35.113Z,12.77
2018-05-12T00:26:37.674Z,12.87
2018-05-12T00:29:40.143Z,12.67
2018-05-12T00:32:42.612Z,12.70
2018-05-12T00:35:45.059Z,12.57
2018-05-12T00:38:47.613Z,12.47
2018-05-12T00:41:50.073Z,11.50
2018-05-12T00:44:52.571Z,12.80
2018-05-12T00:47:55.096Z,12.47
2018-05-12T00:50:57.556Z,12.77
2018-05-12T00:54:00.002Z,12.70
2018-05-12T00:57:02.583Z,11.50
2018-05-12T01:00:05.046Z,11.17
2018-05-12T01:03:07.608Z,12.10
2018-05-12T01:06:10.209Z,11.80
2018-05-12T01:09:12.768Z,11.30
2018-05-12T01:12:15.253Z,11.87
2018-05-12T01:15:17.730Z,11.40
2018-05-12T01:18:20.220Z,12.00
2018-05-12T01:21:22.781Z,10.40
2018-05-12T01:24:25.355Z,10.60
2018-05-12T01:27:27.849Z,11.83
2018-05-12T01:30:30.343Z,11.17
2018-05-12T01:33:32.803Z,10.90
2018-05-12T01:36:35.273Z,11.17
2018-05-12T01:39:37.744Z,11.30
2018-05-12T01:42:40.197Z,10.97
2018-05-12T01:45:42.769Z,10.67
2018-05-12T01:48:45.333Z,9.63
2018-05-12T01:51:47.898Z,10.07
2018-05-12T01:54:50.393Z,9.90
2018-05-12T01:57:52.873Z,10.97
2018-05-12T02:00:55.372Z,11.03
2018-05-12T02:03:57.839Z,10.87
2018-05-12T02:07:00.403Z,9.43
2018-05-12T02:10:02.818Z,10.67
2018-05-12T02:13:05.304Z,10.40
2018-05-12T02:16:07.800Z,10.03
2018-05-12T02:19:10.357Z,11.33
2018-05-12T02:22:12.908Z,10.80
2018-05-12T02:25:15.378Z,11.43
2018-05-12T02:28:17.929Z,11.03
2018-05-12T02:31:20.493Z,10.60
2018-05-12T02:34:22.964Z,10.77
2018-05-12T02:37:25.409Z,10.60
2018-05-12T02:40:27.987Z,12.97
2018-05-12T02:43:30.447Z,10.67
2018-05-12T02:46:33.108Z,12.17
2018-05-12T02:49:35.552Z,11.40
2018-05-12T02:52:38.038Z,12.20
2018-05-12T02:55:40.494Z,12.20
2018-05-12T02:58:43.052Z,10.90
2018-05-12T03:01:45.535Z,11.17
2018-05-12T03:04:48.074Z,10.90
2018-05-12T03:07:50.639Z,11.53
2018-05-12T03:10:53.129Z,11.80
2018-05-12T03:13:55.659Z,11.27
2018-05-12T03:16:58.097Z,11.07
2018-05-12T03:20:00.679Z,12.60
2018-05-12T03:23:03.250Z,11.30
2018-05-12T03:26:05.770Z,11.20
2018-05-12T03:29:08.253Z,11.67
2018-05-12T03:32:10.792Z,11.53
2018-05-12T03:35:13.223Z,11.67
2018-05-12T03:38:15.693Z,10.97
2018-05-12T03:41:18.217Z,11.30
2018-05-12T03:44:20.779Z,11.47
2018-05-12T03:47:23.230Z,11.47
2018-05-12T03:50:25.748Z,10.90
2018-05-12T03:53:28.329Z,12.43
2018-05-12T03:56:30.773Z,11.57
2018-05-12T03:59:33.284Z,11.60
2018-05-12T04:02:35.732Z,11.90
2018-05-12T04:05:50.119Z,11.80
2018-05-12T04:09:04.405Z,12.13
2018-05-12T04:12:19.533Z,12.90
2018-05-12T04:15:21.990Z,11.47
2018-05-12T04:18:24.459Z,11.23
2018-05-12T04:21:26.938Z,11.47
2018-05-12T04:24:29.502Z,11.50
2018-05-12T04:27:31.967Z,11.80
2018-05-12T04:30:34.517Z,11.37
2018-05-12T04:33:37.044Z,11.10
2018-05-12T04:36:39.549Z,10.80
2018-05-12T04:39:42.087Z,12.17
2018-05-12T04:42:44.570Z,11.40
2018-05-12T04:45:47.028Z,11.80
2018-05-12T04:48:49.589Z,11.90
2018-05-12T04:51:52.033Z,12.00
2018-05-12T04:54:54.530Z,11.20
2018-05-12T04:57:57.180Z,12.07
2018-05-12T05:00:59.739Z,11.03
2018-05-12T05:04:02.217Z,11.90
2018-05-12T05:07:04.716Z,11.90
2018-05-12T05:10:07.232Z,11.70
2018-05-12T05:13:09.754Z,11.83
2018-05-12T05:16:12.251Z,11.20
2018-05-12T05:19:14.754Z,11.30
2018-05-12T05:22:17.269Z,11.57
2018-05-12T05:25:19.755Z,11.33
2018-05-12T05:28:22.295Z,10.73
2018-05-12T05:31:24.761Z,11.73
2018-05-12T05:34:27.215Z,10.50
2018-05-12T05:37:29.784Z,11.40
2018-05-12T05:40:32.240Z,11.63
2018-05-12T05:43:34.750Z,11.57
2018-05-12T05:46:37.200Z,11.60
2018-05-12T05:49:39.780Z,11.77
2018-05-12T05:52:42.253Z,11.30
2018-05-12T05:55:44.730Z,11.83
2018-05-12T05:58:47.179Z,11.00
2018-05-12T06:01:49.771Z,12.10
2018-05-12T06:04:52.340Z,10.73
2018-05-12T06:07:54.800Z,12.70
2018-05-12T06:10:57.276Z,12.10
2018-05-12T06:13:59.818Z,11.77
2018-05-12T06:17:02.314Z,12.70
2018-05-12T06:20:04.752Z,13.00
2018-05-12T06:23:07.818Z,12.03
2018-05-12T06:26:10.305Z,12.60
2018-05-12T06:29:12.824Z,13.03
2018-05-12T06:32:15.297Z,12.80
2018-05-12T06:35:17.858Z,13.13
2018-05-12T06:38:20.376Z,12.73
2018-05-12T06:41:22.912Z,13.30
2018-05-12T06:44:25.428Z,11.70
2018-05-12T06:47:27.935Z,12.50
2018-05-12T06:50:30.400Z,12.70
2018-05-12T06:53:32.898Z,12.90
2018-05-12T06:56:35.596Z,13.20
2018-05-12T06:59:38.059Z,12.53
2018-05-12T07:02:40.555Z,14.40
2018-05-12T07:05:43.022Z,14.60
2018-05-12T07:08:45.521Z,13.70
2018-05-12T07:11:48.007Z,13.10
2018-05-12T07:14:51.993Z,13.70
2018-05-12T07:17:54.481Z,13.90
2018-05-12T07:20:57.028Z,13.50
2018-05-12T07:23:59.516Z,13.00
2018-05-12T07:27:02.043Z,13.27
2018-05-12T07:30:04.508Z,13.13
2018-05-12T07:33:07.016Z,13.70
2018-05-12T07:36:09.633Z,13.27
2018-05-12T07:39:12.133Z,13.80
2018-05-12T07:42:14.592Z,13.10
2018-05-12T07:45:17.145Z,13.80
2018-05-12T07:48:19.637Z,14.00
2018-05-12T07:51:22.139Z,13.90
2018-05-12T07:54:24.701Z,13.27
2018-05-12T07:57:27.196Z,13.57
2018-05-12T08:00:29.826Z,14.33
2018-05-12T08:03:32.364Z,14.50
2018-05-12T08:06:34.794Z,12.83
2018-05-12T08:09:37.341Z,14.97
2018-05-12T08:12:39.797Z,15.63
2018-05-12T08:15:42.339Z,14.50
2018-05-12T08:18:44.897Z,14.40
2018-05-12T08:21:47.565Z,15.53
2018-05-12T08:24:50.082Z,15.60
2018-05-12T08:27:52.546Z,15.80
2018-05-12T08:30:55.044Z,15.80
2018-05-12T08:33:57.506Z,15.07
2018-05-12T08:37:00.011Z,15.50
2018-05-12T08:40:02.543Z,15.27
2018-05-12T08:43:05.127Z,16.20
2018-05-12T08:46:07.618Z,14.50
2018-05-12T08:49:10.086Z,14.77
2018-05-12T08:52:12.672Z,15.57
2018-05-12T08:55:15.199Z,15.17
2018-05-12T08:58:17.667Z,14.73
2018-05-12T09:01:20.173Z,15.00
2018-05-12T09:04:22.681Z,15.00
2018-05-12T09:07:25.161Z,15.57
2018-05-12T09:10:27.853Z,14.47
2018-05-12T09:13:30.412Z,14.37
2018-05-12T09:16:32.921Z,15.57
2018-05-12T09:19:35.370Z,15.07
2018-05-12T09:22:37.897Z,15.50
2018-05-12T09:25:40.488Z,13.10
2018-05-12T09:28:42.859Z,14.20
2018-05-12T09:31:45.768Z,13.13
2018-05-12T09:34:48.272Z,13.27
2018-05-12T09:37:50.728Z,11.70
2018-05-12T09:40:53.268Z,11.40
2018-05-12T09:43:55.797Z,11.80
2018-05-12T09:46:58.309Z,11.53
2018-05-12T09:50:00.839Z,12.43
2018-05-12T09:53:03.288Z,11.17
2018-05-12T09:56:05.789Z,10.37
2018-05-12T09:59:08.283Z,12.73
2018-05-12T10:02:10.802Z,11.00
2018-05-12T10:05:13.293Z,10.93
2018-05-12T10:08:15.747Z,9.60
2018-05-12T10:11:18.387Z,9.67
2018-05-12T10:14:20.868Z,9.90
2018-05-12T10:17:23.422Z,8.33
2018-05-12T10:20:25.868Z,8.20
2018-05-12T10:23:28.512Z,8.40
2018-05-12T10:26:31.038Z,7.13
2018-05-12T10:29:33.634Z,6.90
2018-05-12T10:32:36.152Z,7.20
2018-05-12T10:35:38.634Z,7.10
2018-05-12T10:38:41.125Z,6.20
2018-05-12T10:41:43.712Z,7.40
2018-05-12T10:44:46.337Z,7.13
2018-05-12T10:47:48.779Z,7.10
2018-05-12T10:50:51.274Z,7.07
2018-05-12T10:53:53.760Z,8.03
2018-05-12T10:56:56.243Z,8.30
2018-05-12T10:59:58.719Z,8.77
2018-05-12T11:03:01.196Z,8.60
2018-05-12T11:06:03.808Z,8.60
2018-05-12T11:09:06.287Z,8.37
2018-05-12T11:12:08.780Z,9.47
2018-05-12T11:15:11.281Z,10.20
2018-05-12T11:18:13.774Z,9.17
2018-05-12T11:21:16.250Z,9.77
2018-05-12T11:24:18.761Z,10.20
2018-05-12T11:27:21.206Z,9.40
2018-05-12T11:30:23.761Z,8.90
2018-05-12T11:33:26.344Z,9.73
2018-05-12T11:36:28.928Z,9.97
2018-05-12T11:39:31.456Z,10.03
2018-05-12T11:42:33.900Z,11.40
2018-05-12T11:45:36.377Z,11.60
2018-05-12T11:48:38.876Z,11.17
2018-05-12T11:51:41.381Z,10.37
2018-05-12T11:54:43.875Z,11.13
2018-05-12T11:57:46.376Z,12.57
2018-05-12T12:00:48.944Z,12.60
2018-05-12T12:03:51.622Z,11.83
2018-05-12T12:06:54.041Z,12.20
2018-05-12T12:09:56.504Z,13.50
2018-05-12T12:12:59.006Z,13.13
2018-05-12T12:16:01.485Z,13.00
2018-05-12T12:19:04.076Z,12.43
2018-05-12T12:22:06.636Z,12.60
2018-05-12T12:25:09.157Z,12.83
2018-05-12T12:28:11.655Z,13.00
2018-05-12T12:31:14.236Z,11.87
2018-05-12T12:34:16.705Z,11.70
2018-05-12T12:37:19.324Z,12.57
2018-05-12T12:40:21.858Z,12.20
2018-05-12T12:43:24.363Z,11.77
2018-05-12T12:46:26.845Z,12.57
2018-05-12T12:49:29.356Z,12.67
2018-05-12T12:52:31.861Z,10.90
2018-05-12T12:55:34.342Z,12.13
2018-05-12T12:58:36.831Z,11.83
2018-05-12T13:01:39.380Z,12.30
2018-05-12T13:04:41.856Z,12.57
2018-05-12T13:07:44.337Z,13.77
2018-05-12T13:10:46.815Z,12.70
2018-05-12T13:13:50.076Z,12.83
2018-05-12T13:16:52.579Z,12.20
2018-05-12T13:19:55.063Z,13.70
2018-05-12T13:22:57.550Z,13.63
2018-05-12T13:26:00.160Z,13.50
2018-05-12T13:29:02.611Z,13.27
2018-05-12T13:32:05.162Z,14.50
2018-05-12T13:35:07.674Z,13.87
2018-05-12T13:38:10.207Z,14.90
2018-05-12T13:41:12.686Z,14.20
2018-05-12T13:44:15.184Z,14.03
2018-05-12T13:47:17.765Z,13.87
2018-05-12T13:50:20.254Z,14.60
2018-05-12T13:53:22.766Z,14.90
2018-05-12T13:56:25.495Z,15.60
2018-05-12T13:59:27.977Z,15.63
2018-05-12T14:02:30.502Z,17.13
2018-05-12T14:05:32.986Z,15.70
2018-05-12T14:08:35.589Z,15.90
2018-05-12T14:11:38.145Z,16.63
2018-05-12T14:14:40.652Z,16.67
2018-05-12T14:17:43.152Z,16.20
2018-05-12T14:20:45.677Z,16.80
2018-05-12T14:23:48.232Z,15.73
2018-05-12T14:26:50.800Z,15.40
2018-05-12T14:29:53.318Z,15.43
2018-05-12T14:32:55.885Z,17.20
2018-05-12T14:35:58.489Z,16.83
2018-05-12T14:39:01.012Z,17.33
2018-05-12T14:42:03.716Z,18.70
2018-05-12T14:45:06.182Z,18.10
2018-05-12T14:48:08.766Z,16.83
2018-05-12T14:51:11.233Z,18.43
2018-05-12T14:54:13.732Z,17.10
2018-05-12T14:57:16.210Z,17.50
2018-05-12T15:00:18.787Z,17.70
2018-05-12T15:03:21.346Z,17.97
2018-05-12T15:06:23.894Z,18.40
2018-05-12T15:09:26.422Z,18.03
2018-05-12T15:12:28.932Z,18.27
2018-05-12T15:15:31.501Z,17.47
2018-05-12T15:18:34.036Z,18.80
2018-05-12T15:21:36.512Z,18.60
2018-05-12T15:24:39.027Z,17.80
2018-05-12T15:27:41.546Z,18.40
2018-05-12T15:30:44.054Z,18.20
2018-05-12T15:33:46.566Z,17.27
2018-05-12T15:36:49.047Z,18.10
2018-05-12T15:39:51.484Z,18.43
2018-05-12T15:42:53.996Z,19.33
2018-05-12T15:45:56.716Z,19.50
2018-05-12T15:48:59.232Z,20.43
2018-05-12T15:52:01.678Z,20.70
2018-05-12T15:55:04.192Z,21.00
2018-05-12T15:58:06.763Z,21.47
2018-05-12T16:01:09.328Z,21.07
2018-05-12T16:04:11.777Z,22.10
2018-05-12T16:07:14.243Z,22.13
2018-05-12T16:10:16.811Z,23.07
2018-05-12T16:13:19.305Z,20.93
2018-05-12T16:16:21.796Z,21.70
2018-05-12T16:19:24.286Z,22.00
2018-05-12T16:22:26.764Z,22.20
2018-05-12T16:25:29.253Z,21.70
2018-05-12T16:28:31.885Z,22.07
2018-05-12T16:31:34.390Z,21.23
2018-05-12T16:34:36.908Z,21.67
2018-05-12T16:37:39.415Z,22.87
2018-05-12T16:40:41.852Z,21.27
2018-05-12T16:43:44.332Z,22.30
2018-05-12T16:46:46.863Z,23.30
2018-05-12T16:49:49.401Z,24.10
2018-05-12T16:52:52.023Z,24.87
2018-05-12T16:55:54.531Z,24.77
2018-05-12T16:58:57.016Z,23.80
2018-05-12T17:01:59.524Z,24.63
2018-05-12T17:05:02.058Z,24.23
2018-05-12T17:08:04.594Z,24.50
2018-05-12T17:11:07.058Z,22.77
2018-05-12T17:14:09.615Z,23.87
2018-05-12T17:17:12.191Z,23.73
2018-05-12T17:20:14.643Z,24.40
2018-05-12T17:23:17.216Z,25.70
2018-05-12T17:26:19.767Z,24.97
2018-05-12T17:29:22.318Z,24.63
2018-05-12T17:32:24.883Z,23.40
2018-05-12T17:35:27.353Z,25.20
2018-05-12T17:38:29.900Z,25.07
2018-05-12T17:41:32.468Z,25.20
2018-05-12T17:44:35.028Z,24.10
2018-05-12T17:47:37.593Z,26.13
2018-05-12T17:50:40.079Z,24.73
2018-05-12T17:53:42.592Z,25.13
2018-05-12T17:56:45.187Z,24.23
2018-05-12T17:59:47.743Z,24.80
2018-05-12T18:02:50.239Z,25.93
2018-05-12T18:05:52.778Z,24.57
2018-05-12T18:08:55.258Z,23.97
2018-05-12T18:11:57.700Z,22.00
2018-05-12T18:15:00.204Z,24.43
2018-05-12T18:18:02.696Z,25.57
2018-05-12T18:21:05.388Z,25.23
2018-05-12T18:24:07.873Z,25.10
2018-05-12T18:27:10.429Z,24.67
2018-05-12T18:30:12.935Z,26.63
2018-05-12T18:33:15.524Z,26.60
2018-05-12T18:36:18.080Z,26.53
2018-05-12T18:39:20.554Z,27.97
2018-05-12T18:42:23.073Z,25.00
2018-05-12T18:45:25.533Z,23.70
2018-05-12T18:48:28.048Z,25.87
2018-05-12T18:51:30.527Z,25.10
2018-05-12T18:54:33.009Z,26.50
2018-05-12T18:57:35.527Z,25.27
2018-05-12T19:00:38.123Z,25.90
2018-05-12T19:03:40.590Z,29.30
2018-05-12T19:06:43.103Z,25.27
2018-05-12T19:09:45.628Z,27.00
2018-05-12T19:12:48.124Z,27.03
2018-05-12T19:15:50.639Z,26.80
2018-05-12T19:18:53.145Z,25.37
2018-05-12T19:21:55.728Z,25.50
2018-05-12T19:24:58.245Z,25.33
2018-05-12T19:28:00.721Z,25.03
2018-05-12T19:31:03.226Z,25.67
2018-05-12T19:34:05.701Z,24.90
2018-05-12T19:37:08.201Z,28.20
2018-05-12T19:40:10.703Z,25.57
2018-05-12T19:43:13.298Z,26.23
2018-05-12T19:46:15.880Z,27.17
2018-05-12T19:49:18.382Z,25.20
2018-05-12T19:52:20.921Z,27.17
2018-05-12T19:55:23.415Z,28.00
2018-05-12T19:58:25.879Z,28.87
2018-05-12T20:01:28.461Z,28.90
2018-05-12T20:04:31.180Z,28.40
2018-05-12T20:07:33.709Z,28.30
2018-05-12T20:10:36.203Z,27.40
2018-05-12T20:13:38.710Z,29.47
2018-05-12T20:16:41.273Z,28.40
2018-05-12T20:19:43.730Z,28.60
2018-05-12T20:22:46.247Z,28.90
2018-05-12T20:25:48.806Z,29.97
2018-05-12T20:28:51.352Z,26.53
2018-05-12T20:31:53.892Z,28.30
2018-05-12T20:34:56.430Z,29.03
2018-05-12T20:37:59.020Z,28.80
2018-05-12T20:41:01.515Z,29.53
2018-05-12T20:44:03.955Z,30.53
2018-05-12T20:47:06.416Z,30.10
2018-05-12T20:50:08.805Z,30.40
2018-05-12T20:53:11.429Z,30.83
2018-05-12T20:56:13.811Z,29.33
2018-05-12T20:59:16.308Z,28.33
2018-05-12T21:02:18.745Z,30.53
2018-05-12T21:05:21.255Z,32.00
2018-05-12T21:08:23.822Z,30.27
2018-05-12T21:11:26.414Z,27.43
2018-05-12T21:14:28.752Z,29.97
2018-05-12T21:17:31.266Z,28.87
2018-05-12T21:20:33.754Z,27.80
2018-05-12T21:23:36.289Z,28.60
2018-05-12T21:26:38.800Z,26.57
2018-05-12T21:29:41.320Z,28.70
2018-05-12T21:32:43.934Z,29.97
2018-05-12T21:35:46.466Z,28.77
2018-05-12T21:38:48.955Z,29.90
2018-05-12T21:41:51.465Z,30.97
2018-05-12T21:44:54.035Z,31.10
2018-05-12T21:47:56.796Z,31.10
2018-05-12T21:50:59.707Z,28.70
2018-05-12T21:54:02.482Z,28.77
2018-05-12T21:57:05.331Z,30.30
2018-05-12T22:00:07.976Z,30.00
2018-05-12T22:03:10.521Z,28.67
2018-05-12T22:06:13.156Z,29.10
2018-05-12T22:09:15.750Z,30.30
2018-05-12T22:12:18.405Z,31.97
2018-05-12T22:15:21.025Z,31.30
2018-05-12T22:18:23.566Z,30.73
2018-05-12T22:21:26.204Z,32.17
2018-05-12T22:24:29.115Z,31.77
2018-05-12T22:27:31.714Z,31.17
2018-05-12T22:30:34.265Z,31.17
2018-05-12T22:33:36.761Z,29.90
2018-05-12T22:36:39.312Z,30.77
2018-05-12T22:39:41.841Z,29.93
2018-05-12T22:42:44.283Z,30.27
2018-05-12T22:45:46.771Z,30.33
2018-05-12T22:48:49.271Z,28.13
2018-05-12T22:51:51.813Z,28.13
2018-05-12T22:54:54.342Z,30.03
2018-05-12T22:57:56.875Z,29.40
2018-05-12T23:00:59.330Z,31.77
2018-05-12T23:04:01.837Z,31.17
2018-05-12T23:07:04.323Z,30.00
2018-05-12T23:10:06.806Z,29.70
2018-05-12T23:13:09.316Z,31.40
2018-05-12T23:16:11.965Z,29.80
2018-05-12T23:19:14.441Z,30.27
2018-05-12T23:22:17.044Z,28.00
2018-05-12T23:25:19.551Z,27.57
2018-05-12T23:28:22.052Z,27.57
2018-05-12T23:31:24.661Z,29.50
2018-05-12T23:34:27.132Z,28.20
2018-05-12T23:37:29.616Z,28.43
2018-05-12T23:40:32.096Z,28.53
2018-05-12T23:43:34.581Z,27.80
2018-05-12T23:46:37.058Z,27.77
2018-05-12T23:49:39.505Z,27.23
2018-05-12T23:52:44.020Z,27.40
2018-05-12T23:55:46.586Z,29.63
2018-05-12T23:58:49.082Z,28.37
